Time;durP1;ratioP1;P1;durP2;ratioP2;P2;SDS_P1;SDS_P2;PMS_P1;PMS_P2;Temp;Humidity;BMP_temperature;BMP_pressure;BME280_temperature;BME280_humidity;BME280_pressure;Samples;Min_cycle;Max_cycle;Signal;HPM_P1;HPM_P2
2023/03/17 00:00:15;;;;;;;4.80;2.15;;;11.70;99.90;;;;;;5051747;28;20021;-63
2023/03/17 00:02:44;;;;;;;7.55;2.22;;;11.80;99.90;;;;;;5052723;28;20051;-63
2023/03/17 00:05:21;;;;;;;8.63;2.50;;;11.70;99.90;;;;;;5052949;28;20032;-63
2023/03/17 00:07:48;;;;;;;7.43;2.50;;;11.60;99.90;;;;;;5053006;28;20064;-63
2023/03/17 00:10:16;;;;;;;11.25;2.95;;;11.60;99.90;;;;;;5052951;28;20021;-63
2023/03/17 00:12:43;;;;;;;6.90;2.53;;;11.70;99.90;;;;;;5052128;28;20137;-63
2023/03/17 00:15:10;;;;;;;7.20;2.60;;;11.70;99.90;;;;;;5052444;28;20396;-63
2023/03/17 00:17:35;;;;;;;11.23;2.92;;;11.50;99.90;;;;;;5052477;28;20051;-63
2023/03/17 00:20:02;;;;;;;7.22;2.72;;;11.70;99.90;;;;;;5052781;28;20029;-63
2023/03/17 00:22:28;;;;;;;8.88;2.40;;;11.60;99.90;;;;;;5052558;28;20025;-63
2023/03/17 00:24:54;;;;;;;10.43;2.83;;;11.70;99.90;;;;;;5053028;28;20504;-63
2023/03/17 00:27:20;;;;;;;6.95;2.30;;;11.70;99.90;;;;;;5052576;28;20033;-63
2023/03/17 00:29:46;;;;;;;9.18;2.80;;;11.60;99.90;;;;;;5052158;28;20040;-63
2023/03/17 00:32:17;;;;;;;6.68;2.17;;;11.80;99.90;;;;;;5052447;28;20017;-63
2023/03/17 00:34:44;;;;;;;11.48;3.00;;;11.60;99.90;;;;;;5052866;28;20028;-63
2023/03/17 00:37:11;;;;;;;8.90;2.58;;;11.70;99.90;;;;;;5052348;28;20086;-63
2023/03/17 00:39:38;;;;;;;9.73;2.67;;;11.70;99.90;;;;;;5052557;28;20033;-63
2023/03/17 00:42:05;;;;;;;9.55;3.17;;;11.60;99.90;;;;;;5052331;28;20025;-63
2023/03/17 00:44:33;;;;;;;7.15;2.67;;;11.60;99.90;;;;;;5052094;28;20021;-63
2023/03/17 00:47:00;;;;;;;10.25;2.60;;;11.80;99.90;;;;;;5052135;28;20032;-63
2023/03/17 00:49:26;;;;;;;6.18;2.22;;;11.80;99.90;;;;;;5052047;28;20035;-63
2023/03/17 00:51:53;;;;;;;9.32;2.88;;;11.60;99.90;;;;;;5052495;28;20179;-63
2023/03/17 00:54:19;;;;;;;10.07;2.70;;;11.70;99.90;;;;;;5052239;28;20021;-63
2023/03/17 00:56:47;;;;;;;9.20;2.88;;;11.60;99.90;;;;;;5052202;28;20028;-63
2023/03/17 00:59:32;;;;;;;8.18;2.92;;;11.80;99.90;;;;;;5051749;28;20037;-63
2023/03/17 01:01:58;;;;;;;9.43;2.65;;;11.60;99.90;;;;;;5052500;28;20163;-63
2023/03/17 01:04:24;;;;;;;10.52;2.67;;;11.70;99.90;;;;;;5051915;28;20033;-63
2023/03/17 01:06:51;;;;;;;8.65;2.35;;;11.70;99.90;;;;;;5052054;28;20104;-63
2023/03/17 01:09:19;;;;;;;8.38;2.50;;;11.70;99.90;;;;;;5052044;28;20017;-63
2023/03/17 01:11:45;;;;;;;9.25;2.67;;;11.60;99.90;;;;;;5051775;28;20068;-64
2023/03/17 01:14:11;;;;;;;8.27;2.70;;;11.80;99.90;;;;;;5052168;28;20056;-63
2023/03/17 01:16:39;;;;;;;9.20;2.58;;;11.70;99.90;;;;;;5051686;28;20425;-63
2023/03/17 01:19:05;;;;;;;10.18;2.70;;;11.70;99.90;;;;;;5051985;28;20040;-63
2023/03/17 01:21:31;;;;;;;8.82;2.50;;;11.60;99.90;;;;;;5051220;28;20029;-61
2023/03/17 01:23:57;;;;;;;8.40;2.53;;;11.80;99.90;;;;;;5051480;28;20481;-62
2023/03/17 01:26:23;;;;;;;10.27;2.55;;;11.70;99.90;;;;;;5054697;28;20083;-63
2023/03/17 01:28:48;;;;;;;12.68;3.05;;;11.60;99.90;;;;;;5054634;28;20168;-62
2023/03/17 01:31:14;;;;;;;9.40;2.55;;;11.80;99.90;;;;;;5055777;28;20105;-63
2023/03/17 01:33:40;;;;;;;9.40;2.72;;;11.70;99.90;;;;;;5054507;28;20489;-63
2023/03/17 01:36:06;;;;;;;7.95;2.60;;;11.70;99.90;;;;;;5055730;28;20083;-63
2023/03/17 01:38:32;;;;;;;9.90;2.95;;;11.70;99.90;;;;;;5055816;28;20516;-63
2023/03/17 01:41:00;;;;;;;10.38;2.65;;;11.80;99.90;;;;;;5055874;28;20119;-63
2023/03/17 01:43:28;;;;;;;6.60;2.50;;;11.70;99.90;;;;;;5055175;28;20075;-63
2023/03/17 01:46:28;;;;;;;9.85;2.95;;;11.70;99.90;;;;;;5056035;28;20052;-63
2023/03/17 01:49:18;;;;;;;8.43;2.67;;;11.70;99.90;;;;;;5055835;28;20100;-63
2023/03/17 01:52:08;;;;;;;8.93;2.90;;;11.50;99.90;;;;;;5055659;28;20053;-63
2023/03/17 01:54:44;;;;;;;9.07;2.80;;;11.60;99.90;;;;;;5055976;28;20036;-63
2023/03/17 01:57:27;;;;;;;9.23;3.22;;;11.50;99.90;;;;;;5055010;28;20025;-63
2023/03/17 01:59:58;;;;;;;8.63;2.67;;;11.50;99.90;;;;;;5055700;28;20520;-63
2023/03/17 02:02:31;;;;;;;10.30;2.90;;;11.70;99.90;;;;;;5055360;28;20017;-63
2023/03/17 02:04:58;;;;;;;12.80;3.03;;;11.60;99.90;;;;;;5055327;28;20051;-63
2023/03/17 02:07:25;;;;;;;7.82;2.70;;;11.70;99.90;;;;;;5055248;28;20036;-63
2023/03/17 02:09:52;;;;;;;10.73;2.75;;;11.70;99.90;;;;;;5055299;28;20029;-63
2023/03/17 02:12:21;;;;;;;8.10;2.58;;;11.70;99.90;;;;;;5054600;28;20513;-63
2023/03/17 02:14:46;;;;;;;11.05;2.83;;;11.70;99.90;;;;;;5054927;28;20402;-63
2023/03/17 02:17:13;;;;;;;11.23;2.90;;;11.60;99.90;;;;;;5055016;28;20033;-63
2023/03/17 02:19:39;;;;;;;11.23;3.15;;;11.80;99.90;;;;;;5054123;28;20116;-63
2023/03/17 02:22:05;;;;;;;8.45;2.88;;;11.70;99.90;;;;;;5055103;28;20104;-62
2023/03/17 02:24:34;;;;;;;10.98;2.83;;;11.80;99.90;;;;;;5054974;28;20470;-63
2023/03/17 02:27:10;;;;;;;9.52;2.70;;;11.60;99.90;;;;;;5054489;28;20021;-63
2023/03/17 02:29:36;;;;;;;10.30;3.10;;;11.70;99.90;;;;;;5054657;28;20139;-63
2023/03/17 02:32:04;;;;;;;11.63;3.17;;;11.70;99.90;;;;;;5054829;28;20040;-63
2023/03/17 02:34:31;;;;;;;11.68;2.90;;;11.80;99.90;;;;;;5054997;28;20135;-63
2023/03/17 02:36:58;;;;;;;9.55;3.10;;;11.70;99.90;;;;;;5054233;28;20095;-63
2023/03/17 02:39:24;;;;;;;9.20;2.97;;;11.70;99.90;;;;;;5054440;28;20045;-63
2023/03/17 02:41:50;;;;;;;11.60;3.30;;;11.70;99.90;;;;;;5054307;28;20504;-63
2023/03/17 02:44:16;;;;;;;9.57;3.53;;;11.70;99.90;;;;;;5054606;28;20048;-63
2023/03/17 02:46:42;;;;;;;13.82;3.28;;;11.70;99.90;;;;;;5054423;28;20021;-63
2023/03/17 02:49:10;;;;;;;10.02;3.15;;;11.70;99.90;;;;;;5054461;28;20021;-63
2023/03/17 02:51:36;;;;;;;10.18;3.47;;;11.80;99.90;;;;;;5054271;28;20402;-63
2023/03/17 02:54:03;;;;;;;10.27;3.55;;;11.60;99.90;;;;;;5054709;28;20543;-63
2023/03/17 02:56:29;;;;;;;11.98;3.55;;;11.70;99.90;;;;;;5052737;28;20409;-63
2023/03/17 02:58:54;;;;;;;9.38;3.17;;;11.80;99.90;;;;;;5053938;28;20127;-63
2023/03/17 03:01:20;;;;;;;10.55;3.40;;;11.70;99.90;;;;;;5054490;28;20097;-63
2023/03/17 03:03:46;;;;;;;9.25;3.72;;;11.60;99.90;;;;;;5054278;28;20033;-63
2023/03/17 03:06:12;;;;;;;9.38;3.70;;;11.80;99.90;;;;;;5054093;28;20021;-63
2023/03/17 03:08:38;;;;;;;11.48;3.95;;;11.70;99.90;;;;;;5054099;28;20028;-63
2023/03/17 03:11:05;;;;;;;12.27;3.80;;;11.60;99.90;;;;;;5053823;28;20474;-63
2023/03/17 03:13:31;;;;;;;12.93;4.22;;;11.80;99.90;;;;;;5053786;28;20049;-63
2023/03/17 03:15:57;;;;;;;14.35;3.72;;;11.60;99.90;;;;;;5053931;28;20017;-63
2023/03/17 03:18:23;;;;;;;11.45;3.70;;;11.70;99.90;;;;;;5054166;28;20043;-63
2023/03/17 03:20:49;;;;;;;10.55;3.90;;;11.70;99.90;;;;;;5053910;28;20525;-63
2023/03/17 03:23:15;;;;;;;10.77;3.80;;;11.70;99.90;;;;;;5053848;28;20032;-63
2023/03/17 03:25:41;;;;;;;13.40;4.70;;;11.70;99.90;;;;;;5053362;28;20021;-63
2023/03/17 03:28:08;;;;;;;13.48;4.22;;;11.80;99.90;;;;;;5053911;28;20112;-63
2023/03/17 03:30:35;;;;;;;13.00;4.20;;;11.50;99.90;;;;;;5053801;28;20025;-63
2023/03/17 03:33:01;;;;;;;12.63;4.50;;;11.80;99.90;;;;;;5053685;28;20031;-63
2023/03/17 03:35:28;;;;;;;15.00;4.40;;;11.70;99.90;;;;;;5053445;28;20529;-63
2023/03/17 03:37:55;;;;;;;13.63;4.38;;;11.80;99.90;;;;;;5053884;28;20402;-63
2023/03/17 03:40:24;;;;;;;10.93;4.50;;;11.80;99.90;;;;;;5053117;28;20516;-63
2023/03/17 03:42:50;;;;;;;14.15;4.25;;;11.70;99.90;;;;;;5053693;28;20060;-63
2023/03/17 03:45:16;;;;;;;14.43;4.50;;;11.70;99.90;;;;;;5053557;28;20017;-63
2023/03/17 03:47:41;;;;;;;13.10;4.60;;;11.60;99.90;;;;;;5052387;28;20033;-63
2023/03/17 03:50:09;;;;;;;14.93;4.82;;;11.70;99.90;;;;;;5053225;28;20556;-63
2023/03/17 03:52:35;;;;;;;11.90;4.75;;;11.70;99.90;;;;;;5052778;28;20041;-63
2023/03/17 03:55:01;;;;;;;12.90;4.35;;;11.60;99.90;;;;;;5053200;28;20597;-63
2023/03/17 03:57:27;;;;;;;13.45;4.43;;;11.60;99.90;;;;;;5052986;28;20025;-63
2023/03/17 03:59:53;;;;;;;13.98;5.07;;;11.60;99.90;;;;;;5053373;28;20393;-63
2023/03/17 04:02:19;;;;;;;12.23;4.13;;;11.60;99.90;;;;;;5051991;28;20029;-63
2023/03/17 04:04:45;;;;;;;12.13;4.30;;;11.50;99.90;;;;;;5053005;28;20032;-63
2023/03/17 04:07:11;;;;;;;11.95;4.00;;;11.50;99.90;;;;;;5052644;28;20029;-62
2023/03/17 04:09:38;;;;;;;12.27;4.47;;;11.40;99.90;;;;;;5052836;28;20029;-62
2023/03/17 04:12:04;;;;;;;11.40;4.50;;;11.40;99.90;;;;;;5053159;28;20013;-63
2023/03/17 04:14:30;;;;;;;14.60;4.78;;;11.50;99.90;;;;;;5052898;28;20111;-63
2023/03/17 04:16:56;;;;;;;11.43;4.13;;;11.40;99.90;;;;;;5052399;28;20096;-61
2023/03/17 04:19:22;;;;;;;15.45;4.72;;;11.40;99.90;;;;;;5052835;28;20522;-63
2023/03/17 04:21:48;;;;;;;14.93;4.78;;;11.30;99.90;;;;;;5052698;28;20021;-62
2023/03/17 04:24:13;;;;;;;10.25;4.30;;;11.30;99.90;;;;;;5052542;28;20504;-63
2023/03/17 04:26:40;;;;;;;10.82;4.53;;;11.40;99.90;;;;;;5052217;28;20021;-63
2023/03/17 04:29:07;;;;;;;9.70;4.05;;;11.50;99.90;;;;;;5052279;28;20120;-63
2023/03/17 04:31:34;;;;;;;13.20;4.70;;;11.50;99.90;;;;;;5052580;28;20100;-63
2023/03/17 04:34:00;;;;;;;11.93;4.65;;;11.50;99.90;;;;;;5052896;28;20544;-63
2023/03/17 04:36:26;;;;;;;14.80;4.90;;;11.50;99.90;;;;;;5052138;28;20052;-63
2023/03/17 04:38:52;;;;;;;13.02;4.60;;;11.60;99.90;;;;;;5052550;28;20120;-63
2023/03/17 04:41:20;;;;;;;11.52;4.30;;;11.60;99.90;;;;;;5052522;28;20028;-63
2023/03/17 04:43:45;;;;;;;12.13;4.38;;;11.50;99.90;;;;;;5052378;28;20087;-63
2023/03/17 04:46:12;;;;;;;14.93;5.30;;;11.50;99.90;;;;;;5052336;28;20025;-63
2023/03/17 04:48:37;;;;;;;12.80;5.07;;;11.60;99.90;;;;;;5052448;28;20561;-63
2023/03/17 04:51:03;;;;;;;11.90;4.80;;;11.40;99.90;;;;;;5051985;28;20092;-62
2023/03/17 04:53:29;;;;;;;13.25;4.53;;;11.60;99.90;;;;;;5051972;28;20032;-63
2023/03/17 04:55:55;;;;;;;14.27;4.40;;;11.60;99.90;;;;;;5052738;28;20421;-63
2023/03/17 04:58:21;;;;;;;14.13;4.47;;;11.40;99.90;;;;;;5051830;28;20573;-63
2023/03/17 05:00:47;;;;;;;15.57;4.43;;;11.50;99.90;;;;;;5052123;28;20067;-63
2023/03/17 05:03:12;;;;;;;13.43;4.47;;;11.40;99.90;;;;;;5052186;28;20436;-62
2023/03/17 05:05:38;;;;;;;10.07;4.30;;;11.50;99.90;;;;;;5051684;28;20496;-63
2023/03/17 05:08:04;;;;;;;12.95;4.20;;;11.40;99.90;;;;;;5052342;28;20052;-63
2023/03/17 05:10:30;;;;;;;10.73;3.83;;;11.50;99.90;;;;;;5051986;28;20032;-63
2023/03/17 05:12:55;;;;;;;12.95;4.38;;;11.50;99.90;;;;;;5051804;28;20136;-63
2023/03/17 05:15:21;;;;;;;11.18;4.00;;;11.40;99.90;;;;;;5052179;28;20033;-63
2023/03/17 05:17:47;;;;;;;10.23;3.90;;;11.50;99.90;;;;;;5052072;28;20029;-63
2023/03/17 05:20:13;;;;;;;11.13;4.18;;;11.40;99.90;;;;;;5051631;28;20037;-63
2023/03/17 05:22:38;;;;;;;11.38;3.75;;;11.40;99.90;;;;;;5051779;28;20029;-63
2023/03/17 05:25:05;;;;;;;12.02;4.30;;;11.30;99.90;;;;;;5051916;28;20102;-63
2023/03/17 05:27:31;;;;;;;13.75;4.45;;;11.40;99.90;;;;;;5051806;28;20033;-63
2023/03/17 05:29:57;;;;;;;15.77;4.40;;;11.50;99.90;;;;;;5051810;28;20052;-63
2023/03/17 05:32:23;;;;;;;9.52;3.80;;;11.40;99.90;;;;;;5051910;28;20481;-63
2023/03/17 05:34:49;;;;;;;13.05;4.43;;;11.50;99.90;;;;;;5051615;28;20392;-63
2023/03/17 05:37:15;;;;;;;11.95;4.22;;;11.50;99.90;;;;;;5052040;28;20295;-63
2023/03/17 05:39:41;;;;;;;12.73;4.00;;;11.50;99.90;;;;;;5051713;28;20497;-63
2023/03/17 05:42:07;;;;;;;10.77;3.72;;;11.40;99.90;;;;;;5051694;28;20021;-63
2023/03/17 05:44:33;;;;;;;10.55;3.90;;;11.60;99.90;;;;;;5052055;28;20035;-63
2023/03/17 05:46:59;;;;;;;10.52;3.58;;;11.50;99.90;;;;;;5051648;28;20452;-63
2023/03/17 05:49:27;;;;;;;10.13;3.80;;;11.50;99.90;;;;;;5051234;28;20025;-63
2023/03/17 05:51:54;;;;;;;10.32;3.80;;;11.40;99.90;;;;;;5051600;28;20033;-63
2023/03/17 05:54:20;;;;;;;13.68;3.63;;;11.40;99.90;;;;;;5051677;28;20033;-63
2023/03/17 05:56:46;;;;;;;11.43;4.00;;;11.40;99.90;;;;;;5051534;28;20036;-63
2023/03/17 05:59:14;;;;;;;11.45;3.72;;;11.50;99.90;;;;;;5051566;28;20033;-63
2023/03/17 06:01:40;;;;;;;11.32;3.45;;;11.50;99.90;;;;;;5051423;28;20025;-63
2023/03/17 06:04:06;;;;;;;14.15;4.63;;;11.70;99.90;;;;;;5051229;28;20036;-63
2023/03/17 06:06:32;;;;;;;11.07;3.80;;;11.50;99.90;;;;;;5051343;28;20029;-63
2023/03/17 06:08:58;;;;;;;10.57;3.78;;;11.40;99.90;;;;;;5050235;28;20397;-63
2023/03/17 06:11:25;;;;;;;10.80;3.70;;;11.50;99.90;;;;;;5052912;28;20032;-63
2023/03/17 06:13:51;;;;;;;12.75;3.60;;;11.60;99.90;;;;;;5055118;28;20049;-63
2023/03/17 06:16:17;;;;;;;12.63;4.38;;;11.60;99.90;;;;;;5055210;28;20028;-63
2023/03/17 06:18:44;;;;;;;14.10;3.85;;;11.50;99.90;;;;;;5054847;28;20060;-63
2023/03/17 06:21:11;;;;;;;12.80;3.80;;;11.50;99.90;;;;;;5054906;28;20044;-63
2023/03/17 06:23:37;;;;;;;13.32;3.83;;;11.50;99.90;;;;;;5055041;28;20029;-63
2023/03/17 06:26:05;;;;;;;9.65;3.47;;;11.60;99.90;;;;;;5054834;28;20017;-63
2023/03/17 06:28:31;;;;;;;17.67;4.00;;;11.50;99.90;;;;;;5053498;28;20029;-63
2023/03/17 06:30:57;;;;;;;13.85;3.95;;;11.50;99.90;;;;;;5054841;28;20036;-63
2023/03/17 06:33:23;;;;;;;15.02;3.75;;;11.60;99.90;;;;;;5054453;28;20036;-63
2023/03/17 06:35:50;;;;;;;12.82;3.63;;;11.60;99.90;;;;;;5054655;28;20098;-63
2023/03/17 06:38:16;;;;;;;9.98;3.65;;;11.50;99.90;;;;;;5054411;28;20504;-62
2023/03/17 06:40:42;;;;;;;10.20;3.20;;;11.50;99.90;;;;;;5054420;28;20032;-63
2023/03/17 06:43:08;;;;;;;11.57;3.33;;;11.70;99.90;;;;;;5054994;28;20025;-63
2023/03/17 06:45:34;;;;;;;10.43;3.15;;;11.60;99.90;;;;;;5054183;28;20025;-63
2023/03/17 06:48:00;;;;;;;14.88;3.38;;;11.70;99.90;;;;;;5054460;28;20029;-63
2023/03/17 06:50:26;;;;;;;9.75;3.67;;;11.60;99.90;;;;;;5054453;28;20036;-63
2023/03/17 06:52:51;;;;;;;12.75;3.83;;;11.60;99.90;;;;;;5054399;28;20486;-63
2023/03/17 06:55:18;;;;;;;8.32;3.17;;;11.60;99.90;;;;;;5053913;28;20025;-63
2023/03/17 06:57:43;;;;;;;11.55;3.53;;;11.60;99.90;;;;;;5054552;28;20025;-63
2023/03/17 07:00:12;;;;;;;12.23;3.75;;;11.60;99.90;;;;;;5054353;28;20029;-63
2023/03/17 07:02:39;;;;;;;10.25;3.35;;;11.80;99.90;;;;;;5053249;28;20024;-62
2023/03/17 07:05:05;;;;;;;13.38;3.47;;;11.60;99.90;;;;;;5053908;28;20029;-62
2023/03/17 07:07:31;;;;;;;9.98;3.20;;;11.60;99.90;;;;;;5053255;28;20057;-63
2023/03/17 07:09:57;;;;;;;12.25;3.28;;;11.60;99.90;;;;;;5054263;28;20078;-62
2023/03/17 07:12:23;;;;;;;9.98;2.97;;;11.70;99.90;;;;;;5053956;28;20051;-62
2023/03/17 07:14:49;;;;;;;9.82;3.13;;;11.70;99.90;;;;;;5053488;28;20032;-62
2023/03/17 07:17:15;;;;;;;10.20;3.30;;;11.70;99.90;;;;;;5053512;28;20473;-62
2023/03/17 07:19:41;;;;;;;10.93;3.30;;;11.60;99.90;;;;;;5054148;28;20037;-63
2023/03/17 07:22:08;;;;;;;10.07;2.95;;;11.70;99.90;;;;;;5053857;28;20087;-63
2023/03/17 07:24:34;;;;;;;8.15;2.78;;;11.70;99.90;;;;;;5053562;28;20040;-63
2023/03/17 07:26:59;;;;;;;11.13;2.95;;;11.70;99.90;;;;;;5052428;28;20021;-63
2023/03/17 07:29:26;;;;;;;13.05;3.42;;;11.70;99.90;;;;;;5053523;28;20028;-63
2023/03/17 07:31:52;;;;;;;11.82;3.35;;;11.80;99.90;;;;;;5053492;28;20440;-63
2023/03/17 07:34:18;;;;;;;9.20;2.97;;;11.70;99.90;;;;;;5053493;28;20094;-63
2023/03/17 07:36:44;;;;;;;9.90;3.20;;;11.80;99.90;;;;;;5053789;28;20017;-63
2023/03/17 07:39:10;;;;;;;10.57;4.55;;;11.90;99.90;;;;;;5053353;28;20489;-63
2023/03/17 07:41:36;;;;;;;13.05;3.42;;;11.90;99.90;;;;;;5053399;28;20021;-63
2023/03/17 07:44:02;;;;;;;11.70;3.15;;;12.00;99.90;;;;;;5053515;28;20493;-63
2023/03/17 07:46:28;;;;;;;9.65;3.30;;;11.90;99.90;;;;;;5053015;28;20021;-63
2023/03/17 07:48:54;;;;;;;11.63;3.70;;;12.10;99.90;;;;;;5053052;28;20483;-63
2023/03/17 07:51:22;;;;;;;8.77;3.17;;;12.20;99.90;;;;;;5053705;28;20025;-63
2023/03/17 07:53:49;;;;;;;12.18;3.45;;;12.20;99.90;;;;;;5053150;28;20477;-63
2023/03/17 07:56:16;;;;;;;9.73;3.10;;;12.30;99.90;;;;;;5053004;28;20055;-63
2023/03/17 07:58:42;;;;;;;10.10;3.28;;;12.10;99.90;;;;;;5053134;28;20041;-63
2023/03/17 08:01:08;;;;;;;11.88;3.25;;;12.40;99.90;;;;;;5052840;28;20489;-63
2023/03/17 08:03:35;;;;;;;10.65;3.00;;;12.50;99.90;;;;;;5052769;28;20082;-63
2023/03/17 08:06:02;;;;;;;11.52;3.53;;;12.40;99.90;;;;;;5052307;28;20028;-63
2023/03/17 08:08:28;;;;;;;11.85;3.47;;;12.60;99.90;;;;;;5052751;28;20033;-63
2023/03/17 08:11:03;;;;;;;10.77;3.08;;;12.80;99.90;;;;;;5053063;28;20039;-63
2023/03/17 08:13:30;;;;;;;6.38;2.60;;;12.80;99.90;;;;;;5052579;28;20057;-63
2023/03/17 08:15:56;;;;;;;9.25;2.92;;;12.80;99.90;;;;;;5052537;28;20486;-63
2023/03/17 08:18:22;;;;;;;9.07;3.03;;;12.80;99.90;;;;;;5052743;28;20036;-64
2023/03/17 08:20:50;;;;;;;11.05;2.75;;;12.70;99.90;;;;;;5052808;28;20039;-63
2023/03/17 08:23:16;;;;;;;10.80;3.22;;;12.80;99.90;;;;;;5052637;28;20032;-63
2023/03/17 08:25:43;;;;;;;11.07;3.00;;;12.80;99.90;;;;;;5051309;28;20053;-63
2023/03/17 08:28:09;;;;;;;11.13;2.90;;;12.80;99.90;;;;;;5052412;28;20055;-63
2023/03/17 08:30:36;;;;;;;8.18;2.90;;;12.90;99.90;;;;;;5052982;28;20094;-63
2023/03/17 08:33:02;;;;;;;11.18;3.03;;;13.10;99.90;;;;;;5052659;28;20099;-63
2023/03/17 08:35:29;;;;;;;11.15;3.63;;;13.30;99.90;;;;;;5052033;28;20029;-63
2023/03/17 08:37:55;;;;;;;9.10;2.80;;;13.40;99.90;;;;;;5052404;28;20037;-63
2023/03/17 08:40:21;;;;;;;10.65;3.33;;;13.40;99.90;;;;;;5052760;28;20025;-63
2023/03/17 08:42:48;;;;;;;11.23;3.00;;;13.50;99.90;;;;;;5052182;28;20021;-63
2023/03/17 08:45:17;;;;;;;14.05;3.20;;;13.30;99.90;;;;;;5052368;28;20435;-63
2023/03/17 08:47:43;;;;;;;9.75;2.95;;;13.60;99.90;;;;;;5052254;28;20036;-63
2023/03/17 08:50:14;;;;;;;7.68;2.60;;;13.50;99.90;;;;;;5052041;28;20393;-63
2023/03/17 08:52:40;;;;;;;10.52;3.30;;;13.60;99.90;;;;;;5052367;28;20063;-63
2023/03/17 08:55:07;;;;;;;10.27;3.20;;;13.80;99.90;;;;;;5052580;28;20442;-63
2023/03/17 08:57:34;;;;;;;9.43;3.08;;;13.90;99.90;;;;;;5051668;28;20112;-63
2023/03/17 09:00:01;;;;;;;11.00;2.80;;;13.80;99.90;;;;;;5051967;28;20536;-63
2023/03/17 09:02:27;;;;;;;13.48;2.97;;;13.70;99.90;;;;;;5052021;28;20029;-63
2023/03/17 09:04:53;;;;;;;12.60;2.90;;;13.60;99.90;;;;;;5052098;28;20044;-63
2023/03/17 09:07:19;;;;;;;10.85;3.10;;;13.70;99.90;;;;;;5052227;28;20025;-62
2023/03/17 09:09:45;;;;;;;11.88;3.30;;;13.90;99.90;;;;;;5052112;28;20064;-63
2023/03/17 09:12:11;;;;;;;11.68;3.50;;;14.00;99.90;;;;;;5051510;28;20065;-62
2023/03/17 09:14:38;;;;;;;11.18;2.97;;;14.00;99.90;;;;;;5051625;28;20497;-63
2023/03/17 09:17:04;;;;;;;9.65;3.03;;;14.00;99.90;;;;;;5051733;28;20021;-63
2023/03/17 09:19:29;;;;;;;9.60;3.10;;;14.30;99.90;;;;;;5051807;28;20040;-63
2023/03/17 09:21:56;;;;;;;13.60;3.45;;;14.20;99.90;;;;;;5052420;28;20017;-63
2023/03/17 09:24:22;;;;;;;14.18;3.42;;;14.50;99.90;;;;;;5051878;28;20115;-63
2023/03/17 09:26:48;;;;;;;10.60;2.83;;;14.30;99.90;;;;;;5051369;28;20049;-63
2023/03/17 09:29:14;;;;;;;12.75;2.83;;;14.40;99.90;;;;;;5051863;28;20025;-62
2023/03/17 09:31:41;;;;;;;10.13;3.15;;;14.30;99.90;;;;;;5051751;28;20113;-63
2023/03/17 09:34:07;;;;;;;8.18;2.60;;;14.50;99.90;;;;;;5051732;28;20040;-63
2023/03/17 09:36:33;;;;;;;11.50;3.80;;;14.30;99.90;;;;;;5051630;28;20024;-63
2023/03/17 09:39:00;;;;;;;9.93;3.30;;;14.50;99.90;;;;;;5051507;28;20048;-63
2023/03/17 09:41:30;;;;;;;12.68;3.45;;;14.30;99.90;;;;;;5051604;28;20067;-63
2023/03/17 09:43:59;;;;;;;10.77;3.17;;;14.20;99.90;;;;;;5051792;28;20028;-63
2023/03/17 09:46:50;;;;;;;9.93;3.13;;;14.10;99.90;;;;;;5053572;28;20057;-63
2023/03/17 09:49:36;;;;;;;10.45;3.05;;;14.10;99.90;;;;;;5050694;28;20029;-63
2023/03/17 09:52:02;;;;;;;9.73;3.15;;;14.10;99.90;;;;;;5055979;28;20033;-63
2023/03/17 09:54:35;;;;;;;8.32;2.63;;;14.10;99.90;;;;;;5055462;28;20029;-63
2023/03/17 09:57:13;;;;;;;11.95;3.22;;;14.30;99.90;;;;;;5054973;28;20087;-63
2023/03/17 09:59:45;;;;;;;13.82;3.97;;;14.50;99.90;;;;;;5055474;28;20041;-63
2023/03/17 10:02:29;;;;;;;9.37;3.40;;;14.30;99.90;;;;;;5055433;28;20017;-63
2023/03/17 10:04:56;;;;;;;9.43;2.95;;;14.50;99.90;;;;;;5055873;28;20108;-63
2023/03/17 10:07:32;;;;;;;10.50;2.95;;;14.60;99.90;;;;;;5055158;28;20021;-62
2023/03/17 10:10:04;;;;;;;10.90;3.50;;;14.50;99.90;;;;;;5055126;28;20025;-63
2023/03/17 10:13:02;;;;;;;11.45;3.20;;;15.00;99.90;;;;;;5054901;28;20068;-63
2023/03/17 10:15:37;;;;;;;11.82;3.55;;;14.60;99.90;;;;;;5055203;28;20052;-63
2023/03/17 10:18:12;;;;;;;9.77;3.00;;;15.00;99.90;;;;;;5055372;28;20112;-63
2023/03/17 10:20:55;;;;;;;11.57;3.20;;;15.00;99.90;;;;;;5055196;28;20032;-63
2023/03/17 10:23:30;;;;;;;9.93;3.38;;;15.30;99.90;;;;;;5055058;28;20041;-63
2023/03/17 10:26:01;;;;;;;9.55;3.38;;;15.70;99.90;;;;;;5054601;28;20110;-63
2023/03/17 10:28:34;;;;;;;12.38;3.63;;;15.40;99.90;;;;;;5054805;28;20521;-63
2023/03/17 10:31:05;;;;;;;;;;;15.70;99.90;;;;;;5055298;28;20025;-63
2023/03/17 10:33:32;;;;;;;9.93;3.42;;;15.70;99.90;;;;;;5053577;28;19965;-63
2023/03/17 10:36:09;;;;;;;9.77;3.03;;;16.30;99.90;;;;;;5054618;28;20500;-63
2023/03/17 10:38:35;;;;;;;9.02;3.20;;;16.10;99.90;;;;;;5055003;28;20036;-63
2023/03/17 10:41:12;;;;;;;15.75;3.58;;;15.90;99.90;;;;;;5054354;28;20032;-63
2023/03/17 10:43:47;;;;;;;10.68;3.08;;;15.80;99.90;;;;;;5054534;28;20029;-63
2023/03/17 10:46:23;;;;;;;11.82;2.78;;;15.80;99.90;;;;;;5054919;28;20440;-63
2023/03/17 10:48:55;;;;;;;11.68;3.25;;;15.30;99.90;;;;;;5054702;28;20028;-63
2023/03/17 10:51:31;;;;;;;11.98;3.50;;;15.40;99.90;;;;;;5054469;28;20029;-63
2023/03/17 10:54:05;;;;;;;8.30;3.00;;;15.40;99.90;;;;;;5054154;28;20502;-63
2023/03/17 10:56:35;;;;;;;9.95;2.92;;;15.40;99.90;;;;;;5054066;28;20482;-63
2023/03/17 10:59:31;;;;;;;9.07;3.47;;;15.20;99.90;;;;;;5054095;28;20064;-63
2023/03/17 11:02:06;;;;;;;10.95;3.13;;;15.50;99.90;;;;;;5049992;28;20040;-63
2023/03/17 11:04:40;;;;;;;9.45;3.08;;;15.80;99.90;;;;;;5054134;28;20029;-63
2023/03/17 11:07:17;;;;;;;9.75;3.20;;;15.90;99.90;;;;;;5054368;28;20040;-63
2023/03/17 11:09:47;;;;;;;11.13;3.30;;;15.90;99.90;;;;;;5053870;28;20029;-63
2023/03/17 11:12:27;;;;;;;10.02;3.15;;;16.20;99.90;;;;;;5053840;28;20041;-62
2023/03/17 11:15:07;;;;;;;14.02;3.42;;;16.70;99.90;;;;;;5052747;28;20074;-63
2023/03/17 11:18:04;;;;;;;10.45;3.05;;;16.30;99.90;;;;;;5054247;28;20490;-63
2023/03/17 11:21:17;;;;;;;8.48;3.08;;;15.90;99.90;;;;;;5051752;28;20489;-63
2023/03/17 11:23:46;;;;;;;11.07;3.22;;;15.60;99.90;;;;;;5011720;28;20121;-63
2023/03/17 11:26:26;;;;;;;10.60;3.25;;;15.60;99.90;;;;;;5011791;28;20029;-63
2023/03/17 11:29:21;;;;;;;8.43;3.08;;;15.70;99.90;;;;;;5011744;28;20128;-63
2023/03/17 11:32:19;;;;;;;11.13;3.20;;;15.60;99.90;;;;;;5011749;28;20030;-63
2023/03/17 11:35:08;;;;;;;11.43;3.38;;;15.60;99.90;;;;;;5011868;28;20415;-63
2023/03/17 11:38:02;;;;;;;8.98;3.50;;;15.60;99.90;;;;;;5011241;28;20107;-63
2023/03/17 11:40:59;;;;;;;10.15;3.38;;;15.70;99.90;;;;;;5011546;28;20108;-63
2023/03/17 11:43:47;;;;;;;9.25;3.97;;;15.70;99.90;;;;;;5011652;28;20039;-63
2023/03/17 11:46:36;;;;;;;8.93;3.17;;;15.70;99.90;;;;;;5011553;28;20034;-63
2023/03/17 11:49:14;;;;;;;10.15;3.40;;;16.30;99.90;;;;;;5011337;28;20034;-63
2023/03/17 11:52:10;;;;;;;12.52;3.55;;;16.50;99.90;;;;;;5011383;28;20077;-63
2023/03/17 11:54:38;;;;;;;12.75;3.35;;;16.80;99.90;;;;;;5023101;28;20042;-63
2023/03/17 11:57:31;;;;;;;9.95;3.30;;;16.80;99.90;;;;;;5033274;28;20061;-63
2023/03/17 12:00:06;;;;;;;9.13;3.08;;;16.80;99.90;;;;;;5042555;28;20041;-63
2023/03/17 12:02:41;;;;;;;10.85;3.03;;;17.00;99.90;;;;;;5053005;28;20032;-63
2023/03/17 12:05:16;;;;;;;8.77;2.80;;;17.30;99.90;;;;;;5053040;28;20040;-63
2023/03/17 12:07:58;;;;;;;8.00;3.30;;;17.50;99.90;;;;;;5052521;28;20033;-63
2023/03/17 12:10:37;;;;;;;9.00;2.60;;;18.30;99.90;;;;;;5052453;28;20062;-63
2023/03/17 12:13:23;;;;;;;7.97;2.60;;;18.70;99.90;;;;;;5052713;28;20041;-63
2023/03/17 12:15:51;;;;;;;8.98;2.95;;;18.00;99.90;;;;;;5053268;28;20527;-63
2023/03/17 12:18:26;;;;;;;8.05;2.90;;;17.40;99.90;;;;;;5052566;28;20099;-63
2023/03/17 12:21:14;;;;;;;8.75;2.75;;;18.20;99.90;;;;;;5052454;28;20032;-63
2023/03/17 12:23:48;;;;;;;10.90;2.72;;;17.90;99.90;;;;;;5052573;28;20107;-63
2023/03/17 12:26:20;;;;;;;9.90;2.70;;;18.10;99.90;;;;;;5052959;28;20025;-64
2023/03/17 12:29:22;;;;;;;7.22;2.80;;;18.20;99.90;;;;;;5052442;28;20446;-64
2023/03/17 12:31:57;;;;;;;8.30;2.60;;;18.50;99.90;;;;;;5052598;28;20359;-63
2023/03/17 12:34:55;;;;;;;8.65;2.55;;;18.60;99.90;;;;;;5052750;28;20036;-64
2023/03/17 12:37:22;;;;;;;11.27;3.38;;;18.30;99.90;;;;;;5044302;28;20045;-64
2023/03/17 12:40:13;;;;;;;7.63;2.72;;;18.10;99.90;;;;;;5052451;28;20081;-63
2023/03/17 12:42:51;;;;;;;9.73;3.78;;;18.30;99.90;;;;;;5052344;28;20496;-64
2023/03/17 12:45:51;;;;;;;10.43;2.88;;;18.30;99.90;;;;;;5052474;28;20032;-64
2023/03/17 12:48:30;;;;;;;8.70;2.78;;;17.80;99.90;;;;;;5052229;28;20041;-64
2023/03/17 12:51:07;;;;;;;9.38;2.80;;;18.00;99.90;;;;;;5051845;28;20029;-64
2023/03/17 12:53:38;;;;;;;7.70;3.22;;;18.00;99.90;;;;;;5052147;28;20083;-64